sensor_id;sensor_type;location;lat;lon;timestamp;P1;durP1;ratioP1;P2;durP2;ratioP2
16436;SDS011;8328;52.206;21.006;2022-09-30T00:01:20;26.57;;;19.80;;
16436;SDS011;8328;52.206;21.006;2022-09-30T00:03:49;26.60;;;19.90;;
16436;SDS011;8328;52.206;21.006;2022-09-30T00:06:16;29.60;;;21.80;;
16436;SDS011;8328;52.206;21.006;2022-09-30T00:08:44;28.83;;;20.83;;
16436;SDS011;8328;52.206;21.006;2022-09-30T00:11:12;28.63;;;21.10;;
16436;SDS011;8328;52.206;21.006;2022-09-30T00:13:44;28.20;;;20.23;;
16436;SDS011;8328;52.206;21.006;2022-09-30T00:16:12;29.97;;;21.33;;
16436;SDS011;8328;52.206;21.006;2022-09-30T00:18:39;29.03;;;21.50;;
16436;SDS011;8328;52.206;21.006;2022-09-30T00:21:06;30.77;;;21.10;;
16436;SDS011;8328;52.206;21.006;2022-09-30T00:23:34;26.80;;;19.73;;
16436;SDS011;8328;52.206;21.006;2022-09-30T00:26:04;27.90;;;19.73;;
16436;SDS011;8328;52.206;21.006;2022-09-30T00:28:33;26.43;;;20.00;;
16436;SDS011;8328;52.206;21.006;2022-09-30T00:31:00;26.93;;;20.13;;
16436;SDS011;8328;52.206;21.006;2022-09-30T00:33:27;28.77;;;20.50;;
16436;SDS011;8328;52.206;21.006;2022-09-30T00:35:53;29.03;;;20.80;;
16436;SDS011;8328;52.206;21.006;2022-09-30T00:38:19;27.37;;;20.53;;
16436;SDS011;8328;52.206;21.006;2022-09-30T00:40:45;28.93;;;21.20;;
16436;SDS011;8328;52.206;21.006;2022-09-30T00:43:37;26.60;;;20.00;;
16436;SDS011;8328;52.206;21.006;2022-09-30T00:46:20;28.60;;;20.23;;
16436;SDS011;8328;52.206;21.006;2022-09-30T00:49:04;30.67;;;21.40;;
16436;SDS011;8328;52.206;21.006;2022-09-30T00:51:39;31.33;;;21.07;;
16436;SDS011;8328;52.206;21.006;2022-09-30T00:54:09;30.97;;;21.23;;
16436;SDS011;8328;52.206;21.006;2022-09-30T00:56:43;30.53;;;23.10;;
16436;SDS011;8328;52.206;21.006;2022-09-30T00:59:15;28.70;;;21.00;;
16436;SDS011;8328;52.206;21.006;2022-09-30T01:01:44;27.97;;;20.60;;
16436;SDS011;8328;52.206;21.006;2022-09-30T01:04:25;28.57;;;21.13;;
16436;SDS011;8328;52.206;21.006;2022-09-30T01:06:58;27.50;;;20.53;;
16436;SDS011;8328;52.206;21.006;2022-09-30T01:09:26;30.67;;;20.80;;
16436;SDS011;8328;52.206;21.006;2022-09-30T01:11:52;28.37;;;21.50;;
16436;SDS011;8328;52.206;21.006;2022-09-30T01:14:19;30.00;;;20.93;;
16436;SDS011;8328;52.206;21.006;2022-09-30T01:16:50;31.00;;;22.10;;
16436;SDS011;8328;52.206;21.006;2022-09-30T01:34:28;36.57;;;25.43;;
16436;SDS011;8328;52.206;21.006;2022-09-30T01:39:29;39.03;;;27.70;;
16436;SDS011;8328;52.206;21.006;2022-09-30T01:42:02;39.43;;;27.83;;
16436;SDS011;8328;52.206;21.006;2022-09-30T01:52:37;35.90;;;26.30;;
16436;SDS011;8328;52.206;21.006;2022-09-30T01:55:17;39.10;;;26.20;;
16436;SDS011;8328;52.206;21.006;2022-09-30T01:58:01;38.17;;;26.80;;
16436;SDS011;8328;52.206;21.006;2022-09-30T02:00:35;36.90;;;27.10;;
16436;SDS011;8328;52.206;21.006;2022-09-30T02:03:09;38.70;;;27.50;;
16436;SDS011;8328;52.206;21.006;2022-09-30T02:05:52;36.97;;;26.60;;
16436;SDS011;8328;52.206;21.006;2022-09-30T02:08:23;35.03;;;25.43;;
16436;SDS011;8328;52.206;21.006;2022-09-30T02:21:59;39.20;;;26.73;;
16436;SDS011;8328;52.206;21.006;2022-09-30T02:24:32;36.40;;;26.63;;
16436;SDS011;8328;52.206;21.006;2022-09-30T02:27:07;38.20;;;25.43;;
16436;SDS011;8328;52.206;21.006;2022-09-30T02:29:39;37.67;;;26.37;;
16436;SDS011;8328;52.206;21.006;2022-09-30T02:32:14;35.33;;;25.30;;
16436;SDS011;8328;52.206;21.006;2022-09-30T02:34:53;37.70;;;26.53;;
16436;SDS011;8328;52.206;21.006;2022-09-30T02:37:36;37.50;;;26.57;;
16436;SDS011;8328;52.206;21.006;2022-09-30T02:40:14;37.97;;;26.27;;
16436;SDS011;8328;52.206;21.006;2022-09-30T02:42:44;37.03;;;26.37;;
16436;SDS011;8328;52.206;21.006;2022-09-30T02:45:14;36.10;;;25.07;;
16436;SDS011;8328;52.206;21.006;2022-09-30T02:48:44;39.43;;;25.90;;
16436;SDS011;8328;52.206;21.006;2022-09-30T02:50:45;37.27;;;26.23;;
16436;SDS011;8328;52.206;21.006;2022-09-30T02:59:03;37.80;;;26.43;;
16436;SDS011;8328;52.206;21.006;2022-09-30T03:01:29;33.00;;;25.00;;
16436;SDS011;8328;52.206;21.006;2022-09-30T03:04:00;34.17;;;24.83;;
16436;SDS011;8328;52.206;21.006;2022-09-30T03:06:30;34.67;;;24.50;;
16436;SDS011;8328;52.206;21.006;2022-09-30T03:08:56;34.67;;;24.80;;
16436;SDS011;8328;52.206;21.006;2022-09-30T03:11:23;34.10;;;24.37;;
16436;SDS011;8328;52.206;21.006;2022-09-30T03:14:53;35.17;;;24.73;;
16436;SDS011;8328;52.206;21.006;2022-09-30T03:19:45;36.23;;;24.90;;
16436;SDS011;8328;52.206;21.006;2022-09-30T03:30:26;34.57;;;24.63;;
16436;SDS011;8328;52.206;21.006;2022-09-30T03:33:07;38.17;;;25.73;;
16436;SDS011;8328;52.206;21.006;2022-09-30T03:44:21;36.97;;;25.53;;
16436;SDS011;8328;52.206;21.006;2022-09-30T03:46:59;37.03;;;25.03;;
16436;SDS011;8328;52.206;21.006;2022-09-30T03:49:31;35.60;;;25.00;;
16436;SDS011;8328;52.206;21.006;2022-09-30T03:52:05;37.97;;;25.03;;
16436;SDS011;8328;52.206;21.006;2022-09-30T03:54:31;37.00;;;26.13;;
16436;SDS011;8328;52.206;21.006;2022-09-30T03:56:58;34.73;;;24.90;;
16436;SDS011;8328;52.206;21.006;2022-09-30T03:59:29;35.40;;;25.20;;
16436;SDS011;8328;52.206;21.006;2022-09-30T04:01:55;34.77;;;24.67;;
16436;SDS011;8328;52.206;21.006;2022-09-30T04:04:21;38.00;;;25.63;;
16436;SDS011;8328;52.206;21.006;2022-09-30T04:06:47;36.67;;;26.97;;
16436;SDS011;8328;52.206;21.006;2022-09-30T04:09:13;35.40;;;24.63;;
16436;SDS011;8328;52.206;21.006;2022-09-30T04:11:39;35.27;;;24.93;;
16436;SDS011;8328;52.206;21.006;2022-09-30T04:14:05;37.33;;;27.23;;
16436;SDS011;8328;52.206;21.006;2022-09-30T04:16:31;37.27;;;25.63;;
16436;SDS011;8328;52.206;21.006;2022-09-30T04:18:57;35.47;;;25.93;;
16436;SDS011;8328;52.206;21.006;2022-09-30T04:21:24;35.97;;;25.83;;
16436;SDS011;8328;52.206;21.006;2022-09-30T04:23:53;35.53;;;26.87;;
16436;SDS011;8328;52.206;21.006;2022-09-30T04:26:19;36.23;;;27.23;;
16436;SDS011;8328;52.206;21.006;2022-09-30T04:28:45;35.43;;;25.87;;
16436;SDS011;8328;52.206;21.006;2022-09-30T04:31:12;36.30;;;26.73;;
16436;SDS011;8328;52.206;21.006;2022-09-30T04:33:41;38.50;;;28.17;;
16436;SDS011;8328;52.206;21.006;2022-09-30T04:36:09;40.00;;;27.87;;
16436;SDS011;8328;52.206;21.006;2022-09-30T04:38:35;39.83;;;26.43;;
16436;SDS011;8328;52.206;21.006;2022-09-30T04:41:02;37.87;;;27.83;;
16436;SDS011;8328;52.206;21.006;2022-09-30T04:43:29;37.53;;;27.30;;
16436;SDS011;8328;52.206;21.006;2022-09-30T04:45:55;39.23;;;27.37;;
16436;SDS011;8328;52.206;21.006;2022-09-30T04:48:22;40.97;;;28.67;;
16436;SDS011;8328;52.206;21.006;2022-09-30T04:50:48;36.37;;;27.93;;
16436;SDS011;8328;52.206;21.006;2022-09-30T04:53:14;41.57;;;27.93;;
16436;SDS011;8328;52.206;21.006;2022-09-30T04:55:42;37.67;;;28.10;;
16436;SDS011;8328;52.206;21.006;2022-09-30T04:58:09;39.03;;;28.43;;
16436;SDS011;8328;52.206;21.006;2022-09-30T05:00:36;39.77;;;28.93;;
16436;SDS011;8328;52.206;21.006;2022-09-30T05:03:02;39.07;;;28.27;;
16436;SDS011;8328;52.206;21.006;2022-09-30T05:05:28;39.57;;;27.90;;
16436;SDS011;8328;52.206;21.006;2022-09-30T05:08:04;40.57;;;28.07;;
16436;SDS011;8328;52.206;21.006;2022-09-30T05:10:30;39.67;;;28.50;;
16436;SDS011;8328;52.206;21.006;2022-09-30T05:12:56;41.37;;;28.70;;
16436;SDS011;8328;52.206;21.006;2022-09-30T05:15:23;40.53;;;28.87;;
16436;SDS011;8328;52.206;21.006;2022-09-30T05:17:49;40.33;;;29.00;;
16436;SDS011;8328;52.206;21.006;2022-09-30T05:20:15;43.70;;;29.33;;
16436;SDS011;8328;52.206;21.006;2022-09-30T05:22:41;42.60;;;28.33;;
16436;SDS011;8328;52.206;21.006;2022-09-30T05:25:07;39.47;;;26.97;;
16436;SDS011;8328;52.206;21.006;2022-09-30T05:27:33;46.83;;;27.67;;
16436;SDS011;8328;52.206;21.006;2022-09-30T05:29:59;47.93;;;27.97;;
16436;SDS011;8328;52.206;21.006;2022-09-30T05:32:25;47.70;;;27.83;;
16436;SDS011;8328;52.206;21.006;2022-09-30T05:34:50;46.17;;;27.17;;
16436;SDS011;8328;52.206;21.006;2022-09-30T05:37:16;46.23;;;26.43;;
16436;SDS011;8328;52.206;21.006;2022-09-30T05:39:42;47.50;;;28.33;;
16436;SDS011;8328;52.206;21.006;2022-09-30T05:42:08;47.33;;;28.70;;
16436;SDS011;8328;52.206;21.006;2022-09-30T05:44:35;48.33;;;27.33;;
16436;SDS011;8328;52.206;21.006;2022-09-30T05:47:00;50.20;;;28.83;;
16436;SDS011;8328;52.206;21.006;2022-09-30T05:49:26;48.97;;;29.00;;
16436;SDS011;8328;52.206;21.006;2022-09-30T05:51:52;49.70;;;28.57;;
16436;SDS011;8328;52.206;21.006;2022-09-30T05:54:18;46.00;;;27.70;;
16436;SDS011;8328;52.206;21.006;2022-09-30T05:56:44;49.00;;;28.27;;
16436;SDS011;8328;52.206;21.006;2022-09-30T05:59:09;49.47;;;28.73;;
16436;SDS011;8328;52.206;21.006;2022-09-30T06:01:35;53.90;;;30.07;;
16436;SDS011;8328;52.206;21.006;2022-09-30T06:04:01;49.67;;;29.97;;
16436;SDS011;8328;52.206;21.006;2022-09-30T06:06:27;51.50;;;29.13;;
16436;SDS011;8328;52.206;21.006;2022-09-30T06:08:54;43.13;;;26.83;;
16436;SDS011;8328;52.206;21.006;2022-09-30T06:11:20;48.67;;;28.00;;
16436;SDS011;8328;52.206;21.006;2022-09-30T06:13:49;47.27;;;27.47;;
16436;SDS011;8328;52.206;21.006;2022-09-30T06:16:16;45.90;;;27.60;;
16436;SDS011;8328;52.206;21.006;2022-09-30T06:18:43;47.83;;;27.70;;
16436;SDS011;8328;52.206;21.006;2022-09-30T06:21:11;48.87;;;28.13;;
16436;SDS011;8328;52.206;21.006;2022-09-30T06:23:38;52.27;;;31.67;;
16436;SDS011;8328;52.206;21.006;2022-09-30T06:26:05;58.87;;;36.73;;
16436;SDS011;8328;52.206;21.006;2022-09-30T06:28:32;44.70;;;29.53;;
16436;SDS011;8328;52.206;21.006;2022-09-30T06:30:59;51.57;;;29.63;;
16436;SDS011;8328;52.206;21.006;2022-09-30T06:33:28;49.20;;;29.73;;
16436;SDS011;8328;52.206;21.006;2022-09-30T06:35:58;53.50;;;30.63;;
16436;SDS011;8328;52.206;21.006;2022-09-30T06:38:28;51.00;;;30.07;;
16436;SDS011;8328;52.206;21.006;2022-09-30T06:40:57;46.00;;;28.00;;
16436;SDS011;8328;52.206;21.006;2022-09-30T06:43:24;55.17;;;32.07;;
16436;SDS011;8328;52.206;21.006;2022-09-30T06:45:50;51.07;;;31.23;;
16436;SDS011;8328;52.206;21.006;2022-09-30T06:48:16;47.77;;;30.03;;
16436;SDS011;8328;52.206;21.006;2022-09-30T06:50:42;52.93;;;30.77;;
16436;SDS011;8328;52.206;21.006;2022-09-30T06:53:10;42.97;;;28.33;;
16436;SDS011;8328;52.206;21.006;2022-09-30T06:55:37;43.57;;;27.67;;
16436;SDS011;8328;52.206;21.006;2022-09-30T06:58:07;45.10;;;27.80;;
16436;SDS011;8328;52.206;21.006;2022-09-30T07:00:38;44.37;;;27.33;;
16436;SDS011;8328;52.206;21.006;2022-09-30T07:03:04;41.97;;;27.20;;
16436;SDS011;8328;52.206;21.006;2022-09-30T07:05:34;44.93;;;28.40;;
16436;SDS011;8328;52.206;21.006;2022-09-30T07:08:01;45.33;;;26.17;;
16436;SDS011;8328;52.206;21.006;2022-09-30T07:10:27;38.37;;;24.73;;
16436;SDS011;8328;52.206;21.006;2022-09-30T07:12:53;40.57;;;25.83;;
16436;SDS011;8328;52.206;21.006;2022-09-30T07:15:19;41.20;;;26.93;;
16436;SDS011;8328;52.206;21.006;2022-09-30T07:17:53;40.97;;;25.20;;
16436;SDS011;8328;52.206;21.006;2022-09-30T07:20:22;42.50;;;23.80;;
16436;SDS011;8328;52.206;21.006;2022-09-30T07:22:48;41.40;;;26.33;;
16436;SDS011;8328;52.206;21.006;2022-09-30T07:25:14;37.77;;;24.67;;
16436;SDS011;8328;52.206;21.006;2022-09-30T07:27:42;42.40;;;27.60;;
16436;SDS011;8328;52.206;21.006;2022-09-30T07:30:08;39.30;;;26.70;;
16436;SDS011;8328;52.206;21.006;2022-09-30T07:32:35;37.90;;;25.67;;
16436;SDS011;8328;52.206;21.006;2022-09-30T07:35:01;35.63;;;25.40;;
16436;SDS011;8328;52.206;21.006;2022-09-30T07:37:28;33.40;;;23.87;;
16436;SDS011;8328;52.206;21.006;2022-09-30T07:39:56;34.10;;;24.13;;
16436;SDS011;8328;52.206;21.006;2022-09-30T07:42:22;36.07;;;24.10;;
16436;SDS011;8328;52.206;21.006;2022-09-30T07:44:49;33.90;;;24.00;;
16436;SDS011;8328;52.206;21.006;2022-09-30T07:47:16;35.97;;;23.43;;
16436;SDS011;8328;52.206;21.006;2022-09-30T07:49:42;33.97;;;23.70;;
16436;SDS011;8328;52.206;21.006;2022-09-30T07:52:09;33.57;;;23.63;;
16436;SDS011;8328;52.206;21.006;2022-09-30T07:54:36;34.47;;;24.37;;
16436;SDS011;8328;52.206;21.006;2022-09-30T07:57:03;33.07;;;22.93;;
16436;SDS011;8328;52.206;21.006;2022-09-30T07:59:30;33.57;;;22.93;;
16436;SDS011;8328;52.206;21.006;2022-09-30T08:01:57;31.17;;;22.57;;
16436;SDS011;8328;52.206;21.006;2022-09-30T08:04:24;30.13;;;21.23;;
16436;SDS011;8328;52.206;21.006;2022-09-30T08:06:55;30.90;;;21.33;;
16436;SDS011;8328;52.206;21.006;2022-09-30T08:09:23;33.77;;;23.53;;
16436;SDS011;8328;52.206;21.006;2022-09-30T08:11:51;37.43;;;24.30;;
16436;SDS011;8328;52.206;21.006;2022-09-30T08:14:19;32.47;;;24.13;;
16436;SDS011;8328;52.206;21.006;2022-09-30T08:16:47;34.27;;;24.63;;
16436;SDS011;8328;52.206;21.006;2022-09-30T08:19:14;31.30;;;23.20;;
16436;SDS011;8328;52.206;21.006;2022-09-30T08:21:42;32.63;;;22.97;;
16436;SDS011;8328;52.206;21.006;2022-09-30T08:24:09;30.60;;;22.53;;
16436;SDS011;8328;52.206;21.006;2022-09-30T08:26:36;30.27;;;22.70;;
16436;SDS011;8328;52.206;21.006;2022-09-30T08:29:02;29.63;;;21.77;;
16436;SDS011;8328;52.206;21.006;2022-09-30T08:31:28;29.67;;;23.83;;
16436;SDS011;8328;52.206;21.006;2022-09-30T08:33:54;33.67;;;23.20;;
16436;SDS011;8328;52.206;21.006;2022-09-30T08:36:24;28.93;;;22.07;;
16436;SDS011;8328;52.206;21.006;2022-09-30T08:38:50;28.40;;;21.97;;
16436;SDS011;8328;52.206;21.006;2022-09-30T08:41:40;29.67;;;22.67;;
16436;SDS011;8328;52.206;21.006;2022-09-30T08:52:52;29.87;;;24.33;;
16436;SDS011;8328;52.206;21.006;2022-09-30T08:55:24;25.73;;;21.23;;
16436;SDS011;8328;52.206;21.006;2022-09-30T08:57:59;30.40;;;24.00;;
16436;SDS011;8328;52.206;21.006;2022-09-30T09:00:28;30.73;;;23.00;;
16436;SDS011;8328;52.206;21.006;2022-09-30T09:02:58;27.90;;;22.33;;
16436;SDS011;8328;52.206;21.006;2022-09-30T09:05:33;31.57;;;23.60;;
16436;SDS011;8328;52.206;21.006;2022-09-30T09:08:07;33.37;;;24.70;;
16436;SDS011;8328;52.206;21.006;2022-09-30T09:11:11;30.87;;;23.77;;
16436;SDS011;8328;52.206;21.006;2022-09-30T09:13:49;33.60;;;25.90;;
16436;SDS011;8328;52.206;21.006;2022-09-30T09:19:14;35.00;;;26.43;;
16436;SDS011;8328;52.206;21.006;2022-09-30T09:21:53;31.90;;;25.40;;
16436;SDS011;8328;52.206;21.006;2022-09-30T09:24:42;30.87;;;24.33;;
16436;SDS011;8328;52.206;21.006;2022-09-30T09:32:56;22.17;;;18.00;;
16436;SDS011;8328;52.206;21.006;2022-09-30T09:35:39;21.53;;;17.23;;
16436;SDS011;8328;52.206;21.006;2022-09-30T09:48:29;23.13;;;19.33;;
16436;SDS011;8328;52.206;21.006;2022-09-30T09:51:05;26.00;;;20.93;;
16436;SDS011;8328;52.206;21.006;2022-09-30T09:53:52;24.03;;;19.43;;
16436;SDS011;8328;52.206;21.006;2022-09-30T09:56:24;22.13;;;17.93;;
16436;SDS011;8328;52.206;21.006;2022-09-30T09:59:27;23.43;;;17.77;;
16436;SDS011;8328;52.206;21.006;2022-09-30T10:01:48;19.87;;;17.77;;
16436;SDS011;8328;52.206;21.006;2022-09-30T10:04:20;22.20;;;17.37;;
16436;SDS011;8328;52.206;21.006;2022-09-30T10:06:58;21.77;;;18.90;;
16436;SDS011;8328;52.206;21.006;2022-09-30T10:09:35;19.23;;;17.23;;
16436;SDS011;8328;52.206;21.006;2022-09-30T10:14:31;18.00;;;15.30;;
16436;SDS011;8328;52.206;21.006;2022-09-30T10:17:00;19.53;;;15.10;;
16436;SDS011;8328;52.206;21.006;2022-09-30T10:19:29;20.30;;;14.40;;
16436;SDS011;8328;52.206;21.006;2022-09-30T10:24:34;15.00;;;13.40;;
16436;SDS011;8328;52.206;21.006;2022-09-30T10:27:01;15.87;;;13.73;;
16436;SDS011;8328;52.206;21.006;2022-09-30T10:29:29;14.53;;;13.00;;
16436;SDS011;8328;52.206;21.006;2022-09-30T10:32:15;16.60;;;12.70;;
16436;SDS011;8328;52.206;21.006;2022-09-30T10:34:41;14.70;;;11.53;;
16436;SDS011;8328;52.206;21.006;2022-09-30T10:37:18;15.23;;;11.27;;
16436;SDS011;8328;52.206;21.006;2022-09-30T10:40:11;16.47;;;10.63;;
16436;SDS011;8328;52.206;21.006;2022-09-30T10:42:40;12.87;;;10.27;;
16436;SDS011;8328;52.206;21.006;2022-09-30T10:45:18;11.50;;;10.30;;
16436;SDS011;8328;52.206;21.006;2022-09-30T10:47:45;11.40;;;9.33;;
16436;SDS011;8328;52.206;21.006;2022-09-30T10:50:16;10.67;;;9.40;;
16436;SDS011;8328;52.206;21.006;2022-09-30T10:52:48;11.67;;;8.80;;
16436;SDS011;8328;52.206;21.006;2022-09-30T10:55:33;10.53;;;8.83;;
16436;SDS011;8328;52.206;21.006;2022-09-30T10:58:19;9.23;;;7.83;;
16436;SDS011;8328;52.206;21.006;2022-09-30T11:03:54;8.53;;;6.93;;
16436;SDS011;8328;52.206;21.006;2022-09-30T11:06:32;8.17;;;7.13;;
16436;SDS011;8328;52.206;21.006;2022-09-30T11:09:04;7.90;;;7.10;;
16436;SDS011;8328;52.206;21.006;2022-09-30T11:11:39;9.47;;;6.67;;
16436;SDS011;8328;52.206;21.006;2022-09-30T11:14:30;8.47;;;6.67;;
16436;SDS011;8328;52.206;21.006;2022-09-30T11:25:49;7.47;;;6.77;;
16436;SDS011;8328;52.206;21.006;2022-09-30T11:28:34;8.63;;;7.30;;
16436;SDS011;8328;52.206;21.006;2022-09-30T11:31:30;8.13;;;7.00;;
16436;SDS011;8328;52.206;21.006;2022-09-30T11:36:39;7.97;;;6.40;;
16436;SDS011;8328;52.206;21.006;2022-09-30T11:39:16;10.43;;;6.73;;
16436;SDS011;8328;52.206;21.006;2022-09-30T11:41:56;8.53;;;6.33;;
16436;SDS011;8328;52.206;21.006;2022-09-30T11:44:33;7.53;;;6.57;;
16436;SDS011;8328;52.206;21.006;2022-09-30T11:49:52;7.87;;;6.80;;
16436;SDS011;8328;52.206;21.006;2022-09-30T11:58:22;7.73;;;6.70;;
16436;SDS011;8328;52.206;21.006;2022-09-30T12:00:54;7.67;;;5.60;;
16436;SDS011;8328;52.206;21.006;2022-09-30T12:03:37;7.13;;;6.43;;
16436;SDS011;8328;52.206;21.006;2022-09-30T12:06:14;7.53;;;6.30;;
16436;SDS011;8328;52.206;21.006;2022-09-30T12:09:08;10.77;;;9.03;;
16436;SDS011;8328;52.206;21.006;2022-09-30T12:11:43;7.77;;;6.80;;
16436;SDS011;8328;52.206;21.006;2022-09-30T12:14:28;7.90;;;5.83;;
16436;SDS011;8328;52.206;21.006;2022-09-30T12:17:01;8.73;;;7.30;;
16436;SDS011;8328;52.206;21.006;2022-09-30T12:19:33;6.80;;;6.03;;
16436;SDS011;8328;52.206;21.006;2022-09-30T12:22:27;7.57;;;6.77;;
16436;SDS011;8328;52.206;21.006;2022-09-30T12:24:54;8.40;;;7.60;;
16436;SDS011;8328;52.206;21.006;2022-09-30T12:27:27;7.53;;;6.70;;
16436;SDS011;8328;52.206;21.006;2022-09-30T12:35:41;6.67;;;5.97;;
16436;SDS011;8328;52.206;21.006;2022-09-30T12:38:39;6.83;;;6.13;;
16436;SDS011;8328;52.206;21.006;2022-09-30T12:50:10;7.87;;;5.83;;
16436;SDS011;8328;52.206;21.006;2022-09-30T12:52:38;7.13;;;6.43;;
16436;SDS011;8328;52.206;21.006;2022-09-30T12:55:06;7.47;;;6.67;;
16436;SDS011;8328;52.206;21.006;2022-09-30T12:57:43;7.57;;;6.63;;
16436;SDS011;8328;52.206;21.006;2022-09-30T13:00:16;7.97;;;6.93;;
16436;SDS011;8328;52.206;21.006;2022-09-30T13:03:27;10.10;;;7.13;;
16436;SDS011;8328;52.206;21.006;2022-09-30T13:15:38;7.40;;;6.70;;
16436;SDS011;8328;52.206;21.006;2022-09-30T13:23:51;7.50;;;6.30;;
16436;SDS011;8328;52.206;21.006;2022-09-30T13:28:51;6.00;;;5.00;;
16436;SDS011;8328;52.206;21.006;2022-09-30T13:31:19;8.77;;;6.20;;
16436;SDS011;8328;52.206;21.006;2022-09-30T13:34:04;7.07;;;6.37;;
16436;SDS011;8328;52.206;21.006;2022-09-30T13:39:15;6.10;;;5.03;;
16436;SDS011;8328;52.206;21.006;2022-09-30T13:50:33;7.90;;;4.97;;
16436;SDS011;8328;52.206;21.006;2022-09-30T13:53:02;6.17;;;5.20;;
16436;SDS011;8328;52.206;21.006;2022-09-30T13:55:39;4.53;;;4.13;;
16436;SDS011;8328;52.206;21.006;2022-09-30T14:21:02;8.10;;;7.03;;
16436;SDS011;8328;52.206;21.006;2022-09-30T14:23:39;7.43;;;6.60;;
16436;SDS011;8328;52.206;21.006;2022-09-30T14:26:21;7.23;;;5.37;;
16436;SDS011;8328;52.206;21.006;2022-09-30T14:29:25;7.00;;;5.87;;
16436;SDS011;8328;52.206;21.006;2022-09-30T14:32:16;7.33;;;6.07;;
16436;SDS011;8328;52.206;21.006;2022-09-30T14:38:21;7.10;;;6.40;;
16436;SDS011;8328;52.206;21.006;2022-09-30T14:40:52;7.90;;;7.10;;
16436;SDS011;8328;52.206;21.006;2022-09-30T14:43:24;7.10;;;6.40;;
16436;SDS011;8328;52.206;21.006;2022-09-30T14:46:00;8.33;;;6.83;;
16436;SDS011;8328;52.206;21.006;2022-09-30T14:48:33;8.03;;;7.17;;
16436;SDS011;8328;52.206;21.006;2022-09-30T14:51:03;12.20;;;10.07;;
16436;SDS011;8328;52.206;21.006;2022-09-30T14:53:32;7.50;;;6.70;;
16436;SDS011;8328;52.206;21.006;2022-09-30T14:56:00;8.37;;;6.60;;
16436;SDS011;8328;52.206;21.006;2022-09-30T14:58:38;8.80;;;7.60;;
16436;SDS011;8328;52.206;21.006;2022-09-30T15:03:38;7.67;;;6.57;;
16436;SDS011;8328;52.206;21.006;2022-09-30T15:06:15;7.07;;;5.97;;
16436;SDS011;8328;52.206;21.006;2022-09-30T15:08:46;8.67;;;6.33;;
16436;SDS011;8328;52.206;21.006;2022-09-30T15:11:17;10.77;;;7.37;;
16436;SDS011;8328;52.206;21.006;2022-09-30T15:13:45;8.10;;;6.60;;
16436;SDS011;8328;52.206;21.006;2022-09-30T15:16:25;9.30;;;6.90;;
16436;SDS011;8328;52.206;21.006;2022-09-30T15:18:53;7.13;;;6.20;;
16436;SDS011;8328;52.206;21.006;2022-09-30T15:21:19;7.87;;;6.40;;
16436;SDS011;8328;52.206;21.006;2022-09-30T15:23:48;8.47;;;6.87;;
16436;SDS011;8328;52.206;21.006;2022-09-30T15:26:20;7.00;;;6.30;;
16436;SDS011;8328;52.206;21.006;2022-09-30T15:28:47;9.27;;;7.67;;
16436;SDS011;8328;52.206;21.006;2022-09-30T15:31:24;7.37;;;6.67;;
16436;SDS011;8328;52.206;21.006;2022-09-30T15:34:25;8.40;;;6.80;;
16436;SDS011;8328;52.206;21.006;2022-09-30T15:36:46;8.90;;;7.10;;
16436;SDS011;8328;52.206;21.006;2022-09-30T15:39:23;10.27;;;7.43;;
16436;SDS011;8328;52.206;21.006;2022-09-30T15:42:11;9.17;;;7.27;;
16436;SDS011;8328;52.206;21.006;2022-09-30T15:44:39;10.20;;;8.57;;
16436;SDS011;8328;52.206;21.006;2022-09-30T15:47:06;9.53;;;7.90;;
16436;SDS011;8328;52.206;21.006;2022-09-30T15:52:18;11.90;;;8.60;;
16436;SDS011;8328;52.206;21.006;2022-09-30T15:54:52;9.43;;;8.30;;
16436;SDS011;8328;52.206;21.006;2022-09-30T16:00:05;13.17;;;10.80;;
16436;SDS011;8328;52.206;21.006;2022-09-30T16:03:00;11.77;;;9.37;;
16436;SDS011;8328;52.206;21.006;2022-09-30T16:05:51;13.03;;;10.67;;
16436;SDS011;8328;52.206;21.006;2022-09-30T16:08:19;12.63;;;8.83;;
16436;SDS011;8328;52.206;21.006;2022-09-30T16:10:50;12.73;;;9.60;;
16436;SDS011;8328;52.206;21.006;2022-09-30T16:13:19;14.33;;;8.67;;
16436;SDS011;8328;52.206;21.006;2022-09-30T16:15:49;11.93;;;9.80;;
16436;SDS011;8328;52.206;21.006;2022-09-30T16:18:17;10.03;;;8.93;;
16436;SDS011;8328;52.206;21.006;2022-09-30T16:21:01;11.23;;;8.63;;
16436;SDS011;8328;52.206;21.006;2022-09-30T16:23:36;15.10;;;10.77;;
16436;SDS011;8328;52.206;21.006;2022-09-30T16:26:35;14.80;;;11.77;;
16436;SDS011;8328;52.206;21.006;2022-09-30T16:28:55;13.50;;;9.63;;
16436;SDS011;8328;52.206;21.006;2022-09-30T16:31:25;11.17;;;8.80;;
16436;SDS011;8328;52.206;21.006;2022-09-30T16:33:51;12.60;;;9.40;;
16436;SDS011;8328;52.206;21.006;2022-09-30T16:36:17;10.87;;;8.73;;
16436;SDS011;8328;52.206;21.006;2022-09-30T16:38:43;12.53;;;10.30;;
16436;SDS011;8328;52.206;21.006;2022-09-30T16:41:12;10.40;;;9.10;;
16436;SDS011;8328;52.206;21.006;2022-09-30T16:43:38;9.57;;;8.40;;
16436;SDS011;8328;52.206;21.006;2022-09-30T16:46:04;12.33;;;9.37;;
16436;SDS011;8328;52.206;21.006;2022-09-30T16:48:31;9.57;;;8.57;;
16436;SDS011;8328;52.206;21.006;2022-09-30T16:51:05;9.43;;;8.30;;
16436;SDS011;8328;52.206;21.006;2022-09-30T16:53:39;12.73;;;9.50;;
16436;SDS011;8328;52.206;21.006;2022-09-30T16:56:07;9.20;;;7.77;;
16436;SDS011;8328;52.206;21.006;2022-09-30T16:58:40;11.20;;;8.73;;
16436;SDS011;8328;52.206;21.006;2022-09-30T17:01:28;11.73;;;9.07;;
16436;SDS011;8328;52.206;21.006;2022-09-30T17:03:53;12.03;;;9.50;;
16436;SDS011;8328;52.206;21.006;2022-09-30T17:06:24;11.83;;;9.00;;
16436;SDS011;8328;52.206;21.006;2022-09-30T17:08:52;10.50;;;9.00;;
16436;SDS011;8328;52.206;21.006;2022-09-30T17:11:18;14.23;;;9.60;;
16436;SDS011;8328;52.206;21.006;2022-09-30T17:13:50;11.23;;;8.53;;
16436;SDS011;8328;52.206;21.006;2022-09-30T17:16:16;9.70;;;8.47;;
16436;SDS011;8328;52.206;21.006;2022-09-30T17:18:42;12.93;;;9.30;;
16436;SDS011;8328;52.206;21.006;2022-09-30T17:21:08;12.23;;;9.37;;
16436;SDS011;8328;52.206;21.006;2022-09-30T17:23:34;13.10;;;9.70;;
16436;SDS011;8328;52.206;21.006;2022-09-30T17:26:03;12.80;;;9.97;;
16436;SDS011;8328;52.206;21.006;2022-09-30T17:28:29;12.10;;;10.40;;
16436;SDS011;8328;52.206;21.006;2022-09-30T17:30:58;13.33;;;10.50;;
16436;SDS011;8328;52.206;21.006;2022-09-30T17:33:28;11.93;;;9.57;;
16436;SDS011;8328;52.206;21.006;2022-09-30T17:36:01;16.30;;;12.10;;
16436;SDS011;8328;52.206;21.006;2022-09-30T17:38:29;14.77;;;10.83;;
16436;SDS011;8328;52.206;21.006;2022-09-30T17:40:55;13.23;;;10.30;;
16436;SDS011;8328;52.206;21.006;2022-09-30T17:43:39;12.23;;;9.73;;
16436;SDS011;8328;52.206;21.006;2022-09-30T17:46:05;15.23;;;10.00;;
16436;SDS011;8328;52.206;21.006;2022-09-30T17:48:31;12.93;;;10.93;;
16436;SDS011;8328;52.206;21.006;2022-09-30T17:50:57;12.00;;;9.77;;
16436;SDS011;8328;52.206;21.006;2022-09-30T17:53:24;12.43;;;9.80;;
16436;SDS011;8328;52.206;21.006;2022-09-30T17:55:59;12.57;;;9.87;;
16436;SDS011;8328;52.206;21.006;2022-09-30T17:58:27;10.40;;;8.60;;
16436;SDS011;8328;52.206;21.006;2022-09-30T18:00:53;13.13;;;8.83;;
16436;SDS011;8328;52.206;21.006;2022-09-30T18:03:22;13.10;;;9.27;;
16436;SDS011;8328;52.206;21.006;2022-09-30T18:05:55;13.07;;;8.57;;
16436;SDS011;8328;52.206;21.006;2022-09-30T18:08:22;10.63;;;8.83;;
16436;SDS011;8328;52.206;21.006;2022-09-30T18:10:49;13.00;;;9.57;;